sensor_id;sensor_type;location;lat;lon;timestamp;P1;durP1;ratioP1;P2;durP2;ratioP2
62014;SDS011;47970;52.396;9.586;2023-04-24T00:00:07;2.30;;;0.50;;
62014;SDS011;47970;52.396;9.586;2023-04-24T00:02:36;1.00;;;0.60;;
62014;SDS011;47970;52.396;9.586;2023-04-24T00:05:05;2.58;;;0.65;;
62014;SDS011;47970;52.396;9.586;2023-04-24T00:07:30;0.30;;;0.30;;
62014;SDS011;47970;52.396;9.586;2023-04-24T00:09:55;1.55;;;0.50;;
62014;SDS011;47970;52.396;9.586;2023-04-24T00:12:21;2.05;;;0.65;;
62014;SDS011;47970;52.396;9.586;2023-04-24T00:14:46;1.33;;;0.60;;
62014;SDS011;47970;52.396;9.586;2023-04-24T00:17:11;1.13;;;0.70;;
62014;SDS011;47970;52.396;9.586;2023-04-24T00:19:36;1.25;;;0.70;;
62014;SDS011;47970;52.396;9.586;2023-04-24T00:22:02;3.17;;;0.63;;
62014;SDS011;47970;52.396;9.586;2023-04-24T00:24:27;1.50;;;0.70;;
62014;SDS011;47970;52.396;9.586;2023-04-24T00:26:52;1.67;;;0.60;;
62014;SDS011;47970;52.396;9.586;2023-04-24T00:29:18;3.63;;;0.73;;
62014;SDS011;47970;52.396;9.586;2023-04-24T00:31:43;0.50;;;0.50;;
62014;SDS011;47970;52.396;9.586;2023-04-24T00:34:08;4.70;;;1.03;;
62014;SDS011;47970;52.396;9.586;2023-04-24T00:36:33;3.40;;;0.80;;
62014;SDS011;47970;52.396;9.586;2023-04-24T00:38:58;1.53;;;0.53;;
62014;SDS011;47970;52.396;9.586;2023-04-24T00:41:24;1.45;;;0.70;;
62014;SDS011;47970;52.396;9.586;2023-04-24T00:43:50;1.08;;;0.65;;
62014;SDS011;47970;52.396;9.586;2023-04-24T00:46:16;2.90;;;0.50;;
62014;SDS011;47970;52.396;9.586;2023-04-24T00:48:41;0.85;;;0.60;;
62014;SDS011;47970;52.396;9.586;2023-04-24T00:51:07;0.90;;;0.60;;
62014;SDS011;47970;52.396;9.586;2023-04-24T00:53:32;3.10;;;0.70;;
62014;SDS011;47970;52.396;9.586;2023-04-24T00:55:58;1.60;;;0.50;;
62014;SDS011;47970;52.396;9.586;2023-04-24T00:58:23;1.17;;;0.60;;
62014;SDS011;47970;52.396;9.586;2023-04-24T01:00:49;1.08;;;0.70;;
62014;SDS011;47970;52.396;9.586;2023-04-24T01:03:17;2.13;;;0.98;;
62014;SDS011;47970;52.396;9.586;2023-04-24T01:05:43;3.42;;;0.70;;
62014;SDS011;47970;52.396;9.586;2023-04-24T01:08:08;1.37;;;0.60;;
62014;SDS011;47970;52.396;9.586;2023-04-24T01:10:33;2.43;;;0.70;;
62014;SDS011;47970;52.396;9.586;2023-04-24T01:12:59;1.05;;;0.60;;
62014;SDS011;47970;52.396;9.586;2023-04-24T01:15:25;0.70;;;0.68;;
62014;SDS011;47970;52.396;9.586;2023-04-24T01:17:50;1.13;;;0.60;;
62014;SDS011;47970;52.396;9.586;2023-04-24T01:20:15;1.23;;;0.73;;
62014;SDS011;47970;52.396;9.586;2023-04-24T01:22:42;2.75;;;0.65;;
62014;SDS011;47970;52.396;9.586;2023-04-24T01:25:07;0.77;;;0.70;;
62014;SDS011;47970;52.396;9.586;2023-04-24T01:27:32;0.88;;;0.70;;
62014;SDS011;47970;52.396;9.586;2023-04-24T01:29:58;1.10;;;0.70;;
62014;SDS011;47970;52.396;9.586;2023-04-24T01:32:23;0.93;;;0.60;;
62014;SDS011;47970;52.396;9.586;2023-04-24T01:34:48;1.33;;;1.05;;
62014;SDS011;47970;52.396;9.586;2023-04-24T01:37:14;1.13;;;0.80;;
62014;SDS011;47970;52.396;9.586;2023-04-24T01:39:40;0.60;;;0.60;;
62014;SDS011;47970;52.396;9.586;2023-04-24T01:42:05;1.00;;;0.77;;
62014;SDS011;47970;52.396;9.586;2023-04-24T01:44:32;1.20;;;0.70;;
62014;SDS011;47970;52.396;9.586;2023-04-24T01:46:58;1.48;;;0.57;;
62014;SDS011;47970;52.396;9.586;2023-04-24T01:49:23;1.50;;;0.60;;
62014;SDS011;47970;52.396;9.586;2023-04-24T01:51:48;2.73;;;0.77;;
62014;SDS011;47970;52.396;9.586;2023-04-24T01:54:13;1.05;;;0.68;;
62014;SDS011;47970;52.396;9.586;2023-04-24T01:56:42;1.30;;;0.60;;
62014;SDS011;47970;52.396;9.586;2023-04-24T01:59:09;1.30;;;1.20;;
62014;SDS011;47970;52.396;9.586;2023-04-24T02:01:35;0.95;;;0.60;;
62014;SDS011;47970;52.396;9.586;2023-04-24T02:04:06;3.35;;;0.63;;
62014;SDS011;47970;52.396;9.586;2023-04-24T02:06:31;0.43;;;0.35;;
62014;SDS011;47970;52.396;9.586;2023-04-24T02:08:57;2.17;;;0.70;;
62014;SDS011;47970;52.396;9.586;2023-04-24T02:11:23;1.15;;;0.63;;
62014;SDS011;47970;52.396;9.586;2023-04-24T02:13:48;0.68;;;0.45;;
62014;SDS011;47970;52.396;9.586;2023-04-24T02:16:13;0.88;;;0.60;;
62014;SDS011;47970;52.396;9.586;2023-04-24T02:18:38;2.23;;;0.67;;
62014;SDS011;47970;52.396;9.586;2023-04-24T02:21:04;0.80;;;0.40;;
62014;SDS011;47970;52.396;9.586;2023-04-24T02:23:29;1.02;;;0.60;;
62014;SDS011;47970;52.396;9.586;2023-04-24T02:25:56;0.63;;;0.50;;
62014;SDS011;47970;52.396;9.586;2023-04-24T02:28:21;1.27;;;0.50;;
62014;SDS011;47970;52.396;9.586;2023-04-24T02:30:46;1.03;;;0.50;;
62014;SDS011;47970;52.396;9.586;2023-04-24T02:33:11;0.97;;;0.60;;
62014;SDS011;47970;52.396;9.586;2023-04-24T02:35:36;0.77;;;0.60;;
62014;SDS011;47970;52.396;9.586;2023-04-24T02:38:02;0.50;;;0.50;;
62014;SDS011;47970;52.396;9.586;2023-04-24T02:40:28;1.85;;;0.52;;
62014;SDS011;47970;52.396;9.586;2023-04-24T02:42:53;0.98;;;0.57;;
62014;SDS011;47970;52.396;9.586;2023-04-24T02:45:18;0.40;;;0.40;;
62014;SDS011;47970;52.396;9.586;2023-04-24T02:47:43;1.43;;;0.60;;
62014;SDS011;47970;52.396;9.586;2023-04-24T02:50:09;0.70;;;0.50;;
62014;SDS011;47970;52.396;9.586;2023-04-24T02:52:34;1.05;;;0.52;;
62014;SDS011;47970;52.396;9.586;2023-04-24T02:54:59;1.08;;;0.60;;
62014;SDS011;47970;52.396;9.586;2023-04-24T02:57:24;0.83;;;0.50;;
62014;SDS011;47970;52.396;9.586;2023-04-24T02:59:50;0.90;;;0.40;;
62014;SDS011;47970;52.396;9.586;2023-04-24T03:02:15;0.30;;;0.30;;
62014;SDS011;47970;52.396;9.586;2023-04-24T03:04:40;0.67;;;0.50;;
62014;SDS011;47970;52.396;9.586;2023-04-24T03:07:07;1.80;;;0.47;;
62014;SDS011;47970;52.396;9.586;2023-04-24T03:09:33;0.60;;;0.55;;
62014;SDS011;47970;52.396;9.586;2023-04-24T03:11:58;1.07;;;0.60;;
62014;SDS011;47970;52.396;9.586;2023-04-24T03:14:23;0.53;;;0.43;;
62014;SDS011;47970;52.396;9.586;2023-04-24T03:16:48;1.63;;;0.70;;
62014;SDS011;47970;52.396;9.586;2023-04-24T03:19:13;1.43;;;0.60;;
62014;SDS011;47970;52.396;9.586;2023-04-24T03:21:39;3.30;;;0.60;;
62014;SDS011;47970;52.396;9.586;2023-04-24T03:24:06;2.17;;;0.70;;
62014;SDS011;47970;52.396;9.586;2023-04-24T03:26:31;1.10;;;0.50;;
62014;SDS011;47970;52.396;9.586;2023-04-24T03:28:56;3.50;;;0.70;;
62014;SDS011;47970;52.396;9.586;2023-04-24T03:31:22;0.73;;;0.50;;
62014;SDS011;47970;52.396;9.586;2023-04-24T03:33:47;0.70;;;0.50;;
62014;SDS011;47970;52.396;9.586;2023-04-24T03:36:12;1.37;;;0.50;;
62014;SDS011;47970;52.396;9.586;2023-04-24T03:38:37;0.40;;;0.40;;
62014;SDS011;47970;52.396;9.586;2023-04-24T03:41:03;0.57;;;0.50;;
62014;SDS011;47970;52.396;9.586;2023-04-24T03:43:28;2.33;;;0.77;;
62014;SDS011;47970;52.396;9.586;2023-04-24T03:45:53;0.63;;;0.50;;
62014;SDS011;47970;52.396;9.586;2023-04-24T03:48:18;0.93;;;0.43;;
62014;SDS011;47970;52.396;9.586;2023-04-24T03:50:43;0.87;;;0.50;;
62014;SDS011;47970;52.396;9.586;2023-04-24T03:53:09;0.88;;;0.60;;
62014;SDS011;47970;52.396;9.586;2023-04-24T03:55:34;1.27;;;0.68;;
62014;SDS011;47970;52.396;9.586;2023-04-24T03:58:00;1.33;;;0.80;;
62014;SDS011;47970;52.396;9.586;2023-04-24T04:00:25;1.25;;;0.60;;
62014;SDS011;47970;52.396;9.586;2023-04-24T04:02:51;1.27;;;0.45;;
62014;SDS011;47970;52.396;9.586;2023-04-24T04:05:16;1.33;;;0.60;;
62014;SDS011;47970;52.396;9.586;2023-04-24T04:07:41;0.83;;;0.60;;
62014;SDS011;47970;52.396;9.586;2023-04-24T04:10:06;1.43;;;0.70;;
62014;SDS011;47970;52.396;9.586;2023-04-24T04:12:32;0.73;;;0.60;;
62014;SDS011;47970;52.396;9.586;2023-04-24T04:14:57;2.15;;;0.70;;
62014;SDS011;47970;52.396;9.586;2023-04-24T04:17:23;0.97;;;0.67;;
62014;SDS011;47970;52.396;9.586;2023-04-24T04:19:48;1.45;;;1.13;;
62014;SDS011;47970;52.396;9.586;2023-04-24T04:22:13;1.23;;;0.73;;
62014;SDS011;47970;52.396;9.586;2023-04-24T04:24:38;0.85;;;0.57;;
62014;SDS011;47970;52.396;9.586;2023-04-24T04:27:05;1.63;;;0.80;;
62014;SDS011;47970;52.396;9.586;2023-04-24T04:29:31;1.77;;;0.80;;
62014;SDS011;47970;52.396;9.586;2023-04-24T04:31:56;1.63;;;0.55;;
62014;SDS011;47970;52.396;9.586;2023-04-24T04:34:21;3.95;;;0.70;;
62014;SDS011;47970;52.396;9.586;2023-04-24T04:36:47;1.08;;;0.75;;
62014;SDS011;47970;52.396;9.586;2023-04-24T04:39:13;3.17;;;0.60;;
62014;SDS011;47970;52.396;9.586;2023-04-24T04:41:40;1.55;;;0.75;;
62014;SDS011;47970;52.396;9.586;2023-04-24T04:44:05;1.10;;;0.68;;
62014;SDS011;47970;52.396;9.586;2023-04-24T04:46:31;0.88;;;0.50;;
62014;SDS011;47970;52.396;9.586;2023-04-24T04:48:59;3.60;;;0.75;;
62014;SDS011;47970;52.396;9.586;2023-04-24T04:51:24;0.60;;;0.50;;
62014;SDS011;47970;52.396;9.586;2023-04-24T04:53:49;0.82;;;0.60;;
62014;SDS011;47970;52.396;9.586;2023-04-24T04:56:14;1.30;;;0.80;;
62014;SDS011;47970;52.396;9.586;2023-04-24T04:58:40;1.97;;;0.70;;
62014;SDS011;47970;52.396;9.586;2023-04-24T05:01:05;4.20;;;0.80;;
62014;SDS011;47970;52.396;9.586;2023-04-24T05:03:31;4.05;;;0.68;;
62014;SDS011;47970;52.396;9.586;2023-04-24T05:05:57;0.60;;;0.50;;
62014;SDS011;47970;52.396;9.586;2023-04-24T05:08:22;1.42;;;0.63;;
62014;SDS011;47970;52.396;9.586;2023-04-24T05:10:47;1.30;;;0.50;;
62014;SDS011;47970;52.396;9.586;2023-04-24T05:13:13;1.40;;;0.70;;
62014;SDS011;47970;52.396;9.586;2023-04-24T05:15:38;2.25;;;0.95;;
62014;SDS011;47970;52.396;9.586;2023-04-24T05:18:03;1.50;;;0.73;;
62014;SDS011;47970;52.396;9.586;2023-04-24T05:20:28;0.57;;;0.50;;
62014;SDS011;47970;52.396;9.586;2023-04-24T05:22:54;0.50;;;0.50;;
62014;SDS011;47970;52.396;9.586;2023-04-24T05:25:19;0.90;;;0.70;;
62014;SDS011;47970;52.396;9.586;2023-04-24T05:27:44;1.05;;;0.80;;
62014;SDS011;47970;52.396;9.586;2023-04-24T05:30:11;1.55;;;0.73;;
62014;SDS011;47970;52.396;9.586;2023-04-24T05:32:37;0.77;;;0.52;;
62014;SDS011;47970;52.396;9.586;2023-04-24T05:35:02;1.25;;;0.80;;
62014;SDS011;47970;52.396;9.586;2023-04-24T05:37:27;1.27;;;0.80;;
62014;SDS011;47970;52.396;9.586;2023-04-24T05:39:52;1.73;;;0.77;;
62014;SDS011;47970;52.396;9.586;2023-04-24T05:42:18;1.33;;;0.77;;
62014;SDS011;47970;52.396;9.586;2023-04-24T05:44:43;1.50;;;0.70;;
62014;SDS011;47970;52.396;9.586;2023-04-24T05:47:08;1.35;;;0.80;;
62014;SDS011;47970;52.396;9.586;2023-04-24T05:49:34;1.45;;;0.90;;
62014;SDS011;47970;52.396;9.586;2023-04-24T05:51:59;2.30;;;1.43;;
62014;SDS011;47970;52.396;9.586;2023-04-24T05:54:24;1.97;;;0.73;;
62014;SDS011;47970;52.396;9.586;2023-04-24T05:56:49;1.73;;;0.80;;
62014;SDS011;47970;52.396;9.586;2023-04-24T05:59:15;2.53;;;1.13;;
62014;SDS011;47970;52.396;9.586;2023-04-24T06:01:40;2.17;;;1.03;;
62014;SDS011;47970;52.396;9.586;2023-04-24T06:04:06;2.08;;;0.70;;
62014;SDS011;47970;52.396;9.586;2023-04-24T06:06:31;1.50;;;0.73;;
62014;SDS011;47970;52.396;9.586;2023-04-24T06:08:57;1.75;;;0.80;;
62014;SDS011;47970;52.396;9.586;2023-04-24T06:11:23;2.10;;;1.10;;
62014;SDS011;47970;52.396;9.586;2023-04-24T06:13:49;2.33;;;1.00;;
62014;SDS011;47970;52.396;9.586;2023-04-24T06:16:15;1.40;;;0.95;;
62014;SDS011;47970;52.396;9.586;2023-04-24T06:18:40;1.98;;;1.20;;
62014;SDS011;47970;52.396;9.586;2023-04-24T06:21:05;4.30;;;1.50;;
62014;SDS011;47970;52.396;9.586;2023-04-24T06:23:31;3.17;;;1.27;;
62014;SDS011;47970;52.396;9.586;2023-04-24T06:25:57;2.05;;;1.30;;
62014;SDS011;47970;52.396;9.586;2023-04-24T06:28:23;3.28;;;1.50;;
62014;SDS011;47970;52.396;9.586;2023-04-24T06:30:48;2.10;;;1.30;;
62014;SDS011;47970;52.396;9.586;2023-04-24T06:33:13;4.87;;;1.67;;
62014;SDS011;47970;52.396;9.586;2023-04-24T06:35:38;4.93;;;1.90;;
62014;SDS011;47970;52.396;9.586;2023-04-24T06:38:04;5.57;;;2.30;;
62014;SDS011;47970;52.396;9.586;2023-04-24T06:40:29;3.35;;;1.90;;
62014;SDS011;47970;52.396;9.586;2023-04-24T06:42:55;4.22;;;1.83;;
62014;SDS011;47970;52.396;9.586;2023-04-24T06:45:20;4.88;;;2.15;;
62014;SDS011;47970;52.396;9.586;2023-04-24T06:47:45;3.70;;;2.33;;
62014;SDS011;47970;52.396;9.586;2023-04-24T06:50:11;3.28;;;2.22;;
62014;SDS011;47970;52.396;9.586;2023-04-24T06:52:36;4.85;;;2.47;;
62014;SDS011;47970;52.396;9.586;2023-04-24T06:55:02;4.22;;;2.35;;
62014;SDS011;47970;52.396;9.586;2023-04-24T06:57:28;4.78;;;2.70;;
62014;SDS011;47970;52.396;9.586;2023-04-24T06:59:53;4.40;;;2.85;;
62014;SDS011;47970;52.396;9.586;2023-04-24T07:02:18;5.20;;;2.40;;
62014;SDS011;47970;52.396;9.586;2023-04-24T07:04:43;3.50;;;2.50;;
62014;SDS011;47970;52.396;9.586;2023-04-24T07:07:09;5.60;;;3.07;;
62014;SDS011;47970;52.396;9.586;2023-04-24T07:09:37;10.52;;;2.92;;
62014;SDS011;47970;52.396;9.586;2023-04-24T07:12:05;8.18;;;3.58;;
62014;SDS011;47970;52.396;9.586;2023-04-24T07:14:32;5.45;;;3.10;;
62014;SDS011;47970;52.396;9.586;2023-04-24T07:16:57;4.97;;;3.17;;
62014;SDS011;47970;52.396;9.586;2023-04-24T07:19:22;4.67;;;2.70;;
62014;SDS011;47970;52.396;9.586;2023-04-24T07:21:47;6.30;;;3.40;;
62014;SDS011;47970;52.396;9.586;2023-04-24T07:24:13;7.20;;;3.37;;
62014;SDS011;47970;52.396;9.586;2023-04-24T07:26:38;6.80;;;3.03;;
62014;SDS011;47970;52.396;9.586;2023-04-24T07:29:04;8.30;;;3.50;;
62014;SDS011;47970;52.396;9.586;2023-04-24T07:31:30;7.30;;;3.42;;
62014;SDS011;47970;52.396;9.586;2023-04-24T07:33:56;8.95;;;4.38;;
62014;SDS011;47970;52.396;9.586;2023-04-24T07:36:23;7.03;;;4.03;;
62014;SDS011;47970;52.396;9.586;2023-04-24T07:38:49;4.20;;;2.72;;
62014;SDS011;47970;52.396;9.586;2023-04-24T07:41:14;5.28;;;3.50;;
62014;SDS011;47970;52.396;9.586;2023-04-24T07:43:39;8.23;;;4.47;;
62014;SDS011;47970;52.396;9.586;2023-04-24T07:46:05;9.55;;;4.97;;
62014;SDS011;47970;52.396;9.586;2023-04-24T07:48:30;9.45;;;5.22;;
62014;SDS011;47970;52.396;9.586;2023-04-24T07:50:56;9.33;;;4.83;;
62014;SDS011;47970;52.396;9.586;2023-04-24T07:53:21;8.93;;;5.17;;
62014;SDS011;47970;52.396;9.586;2023-04-24T07:55:46;7.23;;;4.33;;
62014;SDS011;47970;52.396;9.586;2023-04-24T07:58:11;10.10;;;5.17;;
62014;SDS011;47970;52.396;9.586;2023-04-24T08:00:36;8.67;;;4.93;;
62014;SDS011;47970;52.396;9.586;2023-04-24T08:03:02;7.83;;;4.80;;
62014;SDS011;47970;52.396;9.586;2023-04-24T08:05:27;7.25;;;4.72;;
62014;SDS011;47970;52.396;9.586;2023-04-24T08:07:53;13.27;;;5.63;;
62014;SDS011;47970;52.396;9.586;2023-04-24T08:10:19;9.60;;;5.47;;
62014;SDS011;47970;52.396;9.586;2023-04-24T08:12:45;7.80;;;4.78;;
62014;SDS011;47970;52.396;9.586;2023-04-24T08:15:10;11.20;;;5.03;;
62014;SDS011;47970;52.396;9.586;2023-04-24T08:17:35;9.07;;;5.20;;
62014;SDS011;47970;52.396;9.586;2023-04-24T08:20:01;7.32;;;4.95;;
62014;SDS011;47970;52.396;9.586;2023-04-24T08:22:27;10.27;;;6.20;;
62014;SDS011;47970;52.396;9.586;2023-04-24T08:24:53;13.30;;;5.97;;
62014;SDS011;47970;52.396;9.586;2023-04-24T08:27:18;8.77;;;5.50;;
62014;SDS011;47970;52.396;9.586;2023-04-24T08:29:43;10.63;;;5.60;;
62014;SDS011;47970;52.396;9.586;2023-04-24T08:32:09;9.70;;;5.33;;
62014;SDS011;47970;52.396;9.586;2023-04-24T08:34:34;10.55;;;5.40;;
62014;SDS011;47970;52.396;9.586;2023-04-24T08:36:59;10.27;;;4.63;;
62014;SDS011;47970;52.396;9.586;2023-04-24T08:39:24;7.13;;;4.85;;
62014;SDS011;47970;52.396;9.586;2023-04-24T08:41:50;13.27;;;5.33;;
62014;SDS011;47970;52.396;9.586;2023-04-24T08:44:15;8.65;;;4.68;;
62014;SDS011;47970;52.396;9.586;2023-04-24T08:46:42;6.63;;;4.55;;
62014;SDS011;47970;52.396;9.586;2023-04-24T08:49:08;7.28;;;4.30;;
62014;SDS011;47970;52.396;9.586;2023-04-24T08:51:33;6.93;;;3.90;;
62014;SDS011;47970;52.396;9.586;2023-04-24T08:53:58;7.03;;;3.88;;
62014;SDS011;47970;52.396;9.586;2023-04-24T08:56:23;8.17;;;4.50;;
62014;SDS011;47970;52.396;9.586;2023-04-24T08:58:53;6.10;;;3.80;;
62014;SDS011;47970;52.396;9.586;2023-04-24T09:01:19;7.80;;;4.75;;
62014;SDS011;47970;52.396;9.586;2023-04-24T09:03:45;7.50;;;4.30;;
62014;SDS011;47970;52.396;9.586;2023-04-24T09:06:11;6.78;;;4.20;;
62014;SDS011;47970;52.396;9.586;2023-04-24T09:08:36;8.13;;;4.18;;
62014;SDS011;47970;52.396;9.586;2023-04-24T09:11:02;6.75;;;3.75;;
62014;SDS011;47970;52.396;9.586;2023-04-24T09:13:28;6.22;;;3.60;;
62014;SDS011;47970;52.396;9.586;2023-04-24T09:15:53;6.77;;;3.93;;
62014;SDS011;47970;52.396;9.586;2023-04-24T09:18:19;6.45;;;2.85;;
62014;SDS011;47970;52.396;9.586;2023-04-24T09:20:57;5.90;;;3.03;;
62014;SDS011;47970;52.396;9.586;2023-04-24T09:23:22;5.55;;;3.33;;
62014;SDS011;47970;52.396;9.586;2023-04-24T09:25:48;5.27;;;3.00;;
62014;SDS011;47970;52.396;9.586;2023-04-24T09:28:18;6.15;;;3.30;;
62014;SDS011;47970;52.396;9.586;2023-04-24T09:30:44;4.17;;;2.33;;
62014;SDS011;47970;52.396;9.586;2023-04-24T09:33:10;5.70;;;2.93;;
62014;SDS011;47970;52.396;9.586;2023-04-24T09:35:35;4.55;;;2.70;;
62014;SDS011;47970;52.396;9.586;2023-04-24T09:38:00;7.47;;;3.20;;
62014;SDS011;47970;52.396;9.586;2023-04-24T09:40:25;5.37;;;2.80;;
62014;SDS011;47970;52.396;9.586;2023-04-24T09:42:52;6.38;;;2.25;;
62014;SDS011;47970;52.396;9.586;2023-04-24T09:45:17;3.80;;;2.47;;
62014;SDS011;47970;52.396;9.586;2023-04-24T09:47:42;4.32;;;2.65;;
62014;SDS011;47970;52.396;9.586;2023-04-24T09:50:14;7.90;;;2.65;;
62014;SDS011;47970;52.396;9.586;2023-04-24T09:52:44;5.38;;;2.80;;
62014;SDS011;47970;52.396;9.586;2023-04-24T09:55:19;6.30;;;3.40;;
62014;SDS011;47970;52.396;9.586;2023-04-24T09:57:48;5.45;;;3.08;;
62014;SDS011;47970;52.396;9.586;2023-04-24T10:00:17;4.30;;;2.78;;
62014;SDS011;47970;52.396;9.586;2023-04-24T10:02:42;3.92;;;2.53;;
62014;SDS011;47970;52.396;9.586;2023-04-24T10:05:09;6.40;;;2.75;;
62014;SDS011;47970;52.396;9.586;2023-04-24T10:07:37;4.85;;;2.67;;
62014;SDS011;47970;52.396;9.586;2023-04-24T10:10:02;4.50;;;2.78;;
62014;SDS011;47970;52.396;9.586;2023-04-24T10:12:27;4.28;;;2.53;;
62014;SDS011;47970;52.396;9.586;2023-04-24T10:14:53;4.15;;;2.10;;
62014;SDS011;47970;52.396;9.586;2023-04-24T10:17:19;3.13;;;2.17;;
62014;SDS011;47970;52.396;9.586;2023-04-24T10:19:46;5.55;;;2.10;;
62014;SDS011;47970;52.396;9.586;2023-04-24T10:22:12;4.57;;;2.20;;
62014;SDS011;47970;52.396;9.586;2023-04-24T10:24:37;6.40;;;2.53;;
62014;SDS011;47970;52.396;9.586;2023-04-24T10:27:03;3.58;;;2.38;;
62014;SDS011;47970;52.396;9.586;2023-04-24T10:29:29;4.80;;;2.33;;
62014;SDS011;47970;52.396;9.586;2023-04-24T10:31:56;4.30;;;2.00;;
62014;SDS011;47970;52.396;9.586;2023-04-24T10:34:21;4.37;;;2.23;;
62014;SDS011;47970;52.396;9.586;2023-04-24T10:36:48;3.53;;;2.05;;
62014;SDS011;47970;52.396;9.586;2023-04-24T10:39:15;3.47;;;1.85;;
62014;SDS011;47970;52.396;9.586;2023-04-24T10:41:41;2.90;;;1.48;;
62014;SDS011;47970;52.396;9.586;2023-04-24T10:44:10;3.53;;;1.60;;
62014;SDS011;47970;52.396;9.586;2023-04-24T10:46:36;2.58;;;1.23;;
62014;SDS011;47970;52.396;9.586;2023-04-24T10:49:05;3.45;;;1.50;;
62014;SDS011;47970;52.396;9.586;2023-04-24T10:51:44;2.65;;;1.38;;
62014;SDS011;47970;52.396;9.586;2023-04-24T10:54:26;4.18;;;1.60;;
62014;SDS011;47970;52.396;9.586;2023-04-24T10:56:52;3.30;;;1.83;;
62014;SDS011;47970;52.396;9.586;2023-04-24T10:59:23;2.13;;;1.50;;
62014;SDS011;47970;52.396;9.586;2023-04-24T11:01:52;2.53;;;1.50;;
62014;SDS011;47970;52.396;9.586;2023-04-24T11:04:21;2.00;;;1.40;;
62014;SDS011;47970;52.396;9.586;2023-04-24T11:06:53;2.88;;;1.40;;
62014;SDS011;47970;52.396;9.586;2023-04-24T11:09:18;3.42;;;1.33;;
62014;SDS011;47970;52.396;9.586;2023-04-24T11:11:46;2.25;;;1.40;;
62014;SDS011;47970;52.396;9.586;2023-04-24T11:14:14;2.65;;;1.17;;
62014;SDS011;47970;52.396;9.586;2023-04-24T11:19:10;2.03;;;1.20;;
62014;SDS011;47970;52.396;9.586;2023-04-24T11:21:43;2.17;;;1.35;;
62014;SDS011;47970;52.396;9.586;2023-04-24T11:24:24;2.78;;;1.60;;
62014;SDS011;47970;52.396;9.586;2023-04-24T11:26:51;7.10;;;1.70;;
62014;SDS011;47970;52.396;9.586;2023-04-24T11:29:16;3.42;;;1.45;;
62014;SDS011;47970;52.396;9.586;2023-04-24T11:31:44;2.03;;;1.50;;
62014;SDS011;47970;52.396;9.586;2023-04-24T11:34:14;2.63;;;1.40;;
62014;SDS011;47970;52.396;9.586;2023-04-24T11:36:44;2.03;;;1.40;;
62014;SDS011;47970;52.396;9.586;2023-04-24T11:39:11;2.85;;;1.40;;
62014;SDS011;47970;52.396;9.586;2023-04-24T11:41:37;2.38;;;1.30;;
62014;SDS011;47970;52.396;9.586;2023-04-24T11:44:03;2.05;;;1.10;;
62014;SDS011;47970;52.396;9.586;2023-04-24T11:46:29;1.75;;;1.10;;
62014;SDS011;47970;52.396;9.586;2023-04-24T11:48:55;3.28;;;1.15;;
62014;SDS011;47970;52.396;9.586;2023-04-24T11:51:21;3.35;;;1.27;;
62014;SDS011;47970;52.396;9.586;2023-04-24T11:53:47;4.63;;;1.17;;
62014;SDS011;47970;52.396;9.586;2023-04-24T11:56:13;1.38;;;0.90;;
62014;SDS011;47970;52.396;9.586;2023-04-24T11:58:42;1.77;;;1.05;;
62014;SDS011;47970;52.396;9.586;2023-04-24T12:01:07;1.20;;;1.00;;
62014;SDS011;47970;52.396;9.586;2023-04-24T12:03:32;1.10;;;0.87;;
62014;SDS011;47970;52.396;9.586;2023-04-24T12:06:07;1.77;;;1.10;;
62014;SDS011;47970;52.396;9.586;2023-04-24T12:08:35;3.92;;;0.90;;
62014;SDS011;47970;52.396;9.586;2023-04-24T12:11:01;1.30;;;1.00;;
62014;SDS011;47970;52.396;9.586;2023-04-24T12:13:26;1.13;;;0.85;;
62014;SDS011;47970;52.396;9.586;2023-04-24T12:15:52;3.15;;;1.00;;
62014;SDS011;47970;52.396;9.586;2023-04-24T12:18:17;1.02;;;0.90;;
62014;SDS011;47970;52.396;9.586;2023-04-24T12:20:42;0.60;;;0.60;;
62014;SDS011;47970;52.396;9.586;2023-04-24T12:23:07;1.17;;;0.87;;
62014;SDS011;47970;52.396;9.586;2023-04-24T12:25:33;1.50;;;1.20;;
62014;SDS011;47970;52.396;9.586;2023-04-24T12:30:30;1.75;;;1.13;;
62014;SDS011;47970;52.396;9.586;2023-04-24T12:32:56;2.15;;;1.10;;
62014;SDS011;47970;52.396;9.586;2023-04-24T12:35:23;2.25;;;1.30;;
62014;SDS011;47970;52.396;9.586;2023-04-24T12:37:48;2.10;;;1.30;;
62014;SDS011;47970;52.396;9.586;2023-04-24T12:40:14;3.85;;;1.20;;
62014;SDS011;47970;52.396;9.586;2023-04-24T12:42:49;1.33;;;1.00;;
62014;SDS011;47970;52.396;9.586;2023-04-24T12:45:15;1.27;;;1.00;;
62014;SDS011;47970;52.396;9.586;2023-04-24T12:47:42;1.65;;;1.00;;
62014;SDS011;47970;52.396;9.586;2023-04-24T12:50:07;1.23;;;0.80;;
62014;SDS011;47970;52.396;9.586;2023-04-24T12:52:33;2.17;;;0.98;;
62014;SDS011;47970;52.396;9.586;2023-04-24T12:54:59;4.30;;;1.17;;
62014;SDS011;47970;52.396;9.586;2023-04-24T12:57:25;1.50;;;1.10;;
62014;SDS011;47970;52.396;9.586;2023-04-24T12:59:53;1.58;;;1.17;;
62014;SDS011;47970;52.396;9.586;2023-04-24T13:02:18;2.38;;;1.25;;
62014;SDS011;47970;52.396;9.586;2023-04-24T13:04:44;1.23;;;1.02;;
62014;SDS011;47970;52.396;9.586;2023-04-24T13:07:10;5.00;;;1.17;;
62014;SDS011;47970;52.396;9.586;2023-04-24T13:09:35;1.63;;;1.00;;
62014;SDS011;47970;52.396;9.586;2023-04-24T13:12:00;2.22;;;1.30;;
62014;SDS011;47970;52.396;9.586;2023-04-24T13:14:26;1.45;;;1.15;;
62014;SDS011;47970;52.396;9.586;2023-04-24T13:16:51;1.57;;;1.23;;
62014;SDS011;47970;52.396;9.586;2023-04-24T13:19:17;1.67;;;1.20;;
62014;SDS011;47970;52.396;9.586;2023-04-24T13:21:42;1.70;;;1.10;;
62014;SDS011;47970;52.396;9.586;2023-04-24T13:24:08;1.53;;;1.10;;
62014;SDS011;47970;52.396;9.586;2023-04-24T13:26:33;2.22;;;1.30;;
62014;SDS011;47970;52.396;9.586;2023-04-24T13:28:59;1.70;;;1.10;;
62014;SDS011;47970;52.396;9.586;2023-04-24T13:31:24;1.33;;;0.88;;
62014;SDS011;47970;52.396;9.586;2023-04-24T13:33:49;0.98;;;0.70;;
62014;SDS011;47970;52.396;9.586;2023-04-24T13:36:15;0.93;;;0.75;;
62014;SDS011;47970;52.396;9.586;2023-04-24T13:38:42;0.82;;;0.75;;
62014;SDS011;47970;52.396;9.586;2023-04-24T13:41:07;1.85;;;0.70;;
62014;SDS011;47970;52.396;9.586;2023-04-24T13:43:33;0.77;;;0.68;;
62014;SDS011;47970;52.396;9.586;2023-04-24T13:45:58;1.03;;;0.50;;
62014;SDS011;47970;52.396;9.586;2023-04-24T13:48:24;2.22;;;0.60;;
62014;SDS011;47970;52.396;9.586;2023-04-24T13:50:49;0.40;;;0.40;;
62014;SDS011;47970;52.396;9.586;2023-04-24T13:53:15;0.73;;;0.40;;
62014;SDS011;47970;52.396;9.586;2023-04-24T13:55:40;2.72;;;0.50;;
62014;SDS011;47970;52.396;9.586;2023-04-24T13:58:05;0.77;;;0.47;;
62014;SDS011;47970;52.396;9.586;2023-04-24T14:00:31;1.75;;;0.63;;
62014;SDS011;47970;52.396;9.586;2023-04-24T14:02:56;0.98;;;0.60;;
62014;SDS011;47970;52.396;9.586;2023-04-24T14:05:21;1.90;;;0.53;;
62014;SDS011;47970;52.396;9.586;2023-04-24T14:07:47;4.13;;;0.60;;
62014;SDS011;47970;52.396;9.586;2023-04-24T14:10:12;1.70;;;0.93;;
62014;SDS011;47970;52.396;9.586;2023-04-24T14:12:37;4.32;;;1.00;;
62014;SDS011;47970;52.396;9.586;2023-04-24T14:15:03;1.85;;;1.00;;
62014;SDS011;47970;52.396;9.586;2023-04-24T14:17:29;1.70;;;1.10;;
62014;SDS011;47970;52.396;9.586;2023-04-24T14:19:55;3.33;;;1.02;;
62014;SDS011;47970;52.396;9.586;2023-04-24T14:22:21;2.95;;;1.35;;
62014;SDS011;47970;52.396;9.586;2023-04-24T14:24:46;1.57;;;1.10;;
62014;SDS011;47970;52.396;9.586;2023-04-24T14:27:12;3.50;;;1.67;;
62014;SDS011;47970;52.396;9.586;2023-04-24T14:29:37;9.43;;;3.00;;
62014;SDS011;47970;52.396;9.586;2023-04-24T14:32:02;4.00;;;1.80;;
62014;SDS011;47970;52.396;9.586;2023-04-24T14:34:27;4.07;;;1.80;;
62014;SDS011;47970;52.396;9.586;2023-04-24T14:36:52;4.07;;;1.33;;
62014;SDS011;47970;52.396;9.586;2023-04-24T14:39:18;3.90;;;1.42;;
62014;SDS011;47970;52.396;9.586;2023-04-24T14:41:43;2.00;;;1.20;;
62014;SDS011;47970;52.396;9.586;2023-04-24T14:44:08;4.13;;;1.50;;